Time;durP1;ratioP1;P1;durP2;ratioP2;P2;SDS_P1;SDS_P2;PMS_P1;PMS_P2;Temp;Humidity;BMP_temperature;BMP_pressure;BME280_temperature;BME280_humidity;BME280_pressure;Samples;Min_cycle;Max_cycle;Signal;HPM_P1;HPM_P2
2021/05/13 00:00:45;;;;;;;10.83;3.37;;;;;;;12.15;100.00;100663.39;1741692;82;26742;-75
2021/05/13 00:03:15;;;;;;;8.47;3.37;;;;;;;12.27;100.00;100660.17;1732140;83;26402;-75
2021/05/13 00:05:45;;;;;;;8.70;3.17;;;;;;;12.28;100.00;100661.80;1741836;82;26254;-75
2021/05/13 00:08:15;;;;;;;7.63;2.63;;;;;;;12.21;100.00;100659.97;1732211;83;26712;-75
2021/05/13 00:10:45;;;;;;;6.97;3.03;;;;;;;12.25;100.00;100649.33;1741646;82;26243;-74
2021/05/13 00:13:15;;;;;;;9.53;3.47;;;;;;;12.24;100.00;100651.84;1732243;83;26324;-74
2021/05/13 00:15:45;;;;;;;8.23;3.33;;;;;;;12.21;100.00;100648.83;1741605;82;26727;-75
2021/05/13 00:18:15;;;;;;;8.07;3.17;;;;;;;12.16;100.00;100648.34;1732213;83;26725;-75
2021/05/13 00:20:45;;;;;;;7.90;3.00;;;;;;;12.15;100.00;100653.64;1741705;82;26275;-75
2021/05/13 00:23:15;;;;;;;5.47;3.17;;;;;;;12.11;100.00;100650.36;1732230;83;26724;-75
2021/05/13 00:25:47;;;;;;;12.80;3.47;;;;;;;12.22;100.00;100642.98;1741628;81;26314;-75
2021/05/13 00:28:16;;;;;;;6.13;3.33;;;;;;;12.30;100.00;100635.89;1732347;83;26251;-75
2021/05/13 00:30:46;;;;;;;4.40;2.90;;;;;;;12.28;100.00;100640.92;1741798;82;26376;-75
2021/05/13 00:33:16;;;;;;;6.70;3.00;;;;;;;12.29;100.00;100639.23;1732192;83;26247;-75
2021/05/13 00:35:46;;;;;;;5.87;3.30;;;;;;;12.36;100.00;100630.52;1741643;82;26748;-75
2021/05/13 00:38:16;;;;;;;9.40;3.37;;;;;;;12.28;100.00;100627.83;1732219;83;26278;-75
2021/05/13 00:40:46;;;;;;;8.53;3.20;;;;;;;12.20;100.00;100632.69;1741580;82;26263;-75
2021/05/13 00:43:15;;;;;;;7.20;3.67;;;;;;;12.22;100.00;100626.83;1732212;83;26705;-75
2021/05/13 00:45:45;;;;;;;10.17;3.67;;;;;;;12.21;100.00;100624.61;1741593;82;26255;-75
2021/05/13 00:48:17;;;;;;;6.30;3.33;;;;;;;12.21;100.00;100627.39;1732182;83;26278;-74
2021/05/13 00:50:47;;;;;;;11.07;3.70;;;;;;;12.19;100.00;100621.88;1741686;82;26732;-74
2021/05/13 00:53:17;;;;;;;6.40;3.50;;;;;;;12.30;100.00;100624.75;1732138;83;26255;-75
2021/05/13 00:55:47;;;;;;;9.27;3.37;;;;;;;12.26;100.00;100618.12;1741612;82;26255;-75
2021/05/13 00:58:17;;;;;;;9.73;3.60;;;;;;;12.20;100.00;100616.55;1732316;83;26689;-75
2021/05/13 01:00:52;;;;;;;7.63;3.67;;;;;;;12.25;100.00;100613.69;1741769;82;26242;-75
2021/05/13 01:03:21;;;;;;;9.77;4.00;;;;;;;12.24;100.00;100607.28;1732468;83;26352;-75
2021/05/13 01:05:50;;;;;;;10.27;4.33;;;;;;;12.18;100.00;100602.11;1741701;82;26258;-75
2021/05/13 01:08:20;;;;;;;8.40;3.40;;;;;;;12.16;100.00;100602.96;1732668;83;26689;-75
2021/05/13 01:10:50;;;;;;;8.80;3.37;;;;;;;12.22;100.00;100599.81;1741959;82;26295;-75
2021/05/13 01:13:23;;;;;;;7.47;3.47;;;;;;;12.29;100.00;100600.81;1732366;83;26338;-75
2021/05/13 01:16:04;;;;;;;6.70;3.27;;;;;;;12.25;100.00;100596.41;1741781;82;26337;-75
2021/05/13 01:18:25;;;;;;;11.93;3.70;;;;;;;12.30;100.00;100597.73;1730811;82;26262;-75
2021/05/13 01:20:56;;;;;;;9.20;3.63;;;;;;;12.30;100.00;100592.16;1741758;82;26263;-75
2021/05/13 01:23:25;;;;;;;7.50;3.73;;;;;;;12.21;100.00;100588.41;1732310;83;26251;-75
2021/05/13 01:25:57;;;;;;;12.20;3.40;;;;;;;12.28;100.00;100592.19;1741612;81;26789;-75
2021/05/13 01:28:28;;;;;;;10.43;3.80;;;;;;;12.28;100.00;100581.88;1732242;83;26341;-75
2021/05/13 01:30:58;;;;;;;7.90;3.30;;;;;;;12.32;100.00;100582.13;1741777;82;26347;-75
2021/05/13 01:33:29;;;;;;;9.53;3.70;;;;;;;12.24;100.00;100579.44;1732346;83;26262;-75
2021/05/13 01:35:58;;;;;;;8.10;3.77;;;;;;;12.40;100.00;100580.03;1741749;82;26317;-75
2021/05/13 01:38:28;;;;;;;7.93;3.17;;;;;;;12.27;100.00;100582.20;1732265;83;26266;-74
2021/05/13 01:41:01;;;;;;;8.33;3.00;;;;;;;12.25;100.00;100576.09;1741796;82;26841;-75
2021/05/13 01:43:32;;;;;;;7.17;3.13;;;;;;;12.32;100.00;100573.77;1732202;83;26701;-75
2021/05/13 01:46:03;;;;;;;8.00;2.83;;;;;;;12.28;100.00;100576.30;1741868;82;26423;-74
2021/05/13 01:48:35;;;;;;;6.63;2.93;;;;;;;12.23;100.00;100576.97;1732179;83;26348;-75
2021/05/13 01:51:05;;;;;;;11.37;3.30;;;;;;;12.20;100.00;100567.81;1741709;82;26266;-74
2021/05/13 01:53:35;;;;;;;9.30;3.17;;;;;;;12.26;100.00;100563.83;1732200;83;26712;-74
2021/05/13 01:56:06;;;;;;;7.57;2.77;;;;;;;12.26;100.00;100562.44;1741677;82;26695;-74
2021/05/13 01:58:36;;;;;;;9.83;3.20;;;;;;;12.22;100.00;100554.43;1732338;83;26274;-75
2021/05/13 02:01:08;;;;;;;9.43;2.80;;;;;;;12.27;100.00;100562.14;1741728;82;26284;-75
2021/05/13 02:03:38;;;;;;;7.87;3.00;;;;;;;12.27;100.00;100558.53;1732226;83;26282;-75
2021/05/13 02:06:08;;;;;;;10.90;3.53;;;;;;;12.24;100.00;100560.50;1741625;82;26255;-75
2021/05/13 02:08:39;;;;;;;8.00;3.00;;;;;;;12.32;100.00;100550.09;1732253;83;26262;-75
2021/05/13 02:11:08;;;;;;;8.13;3.30;;;;;;;12.39;100.00;100547.73;1741735;82;26369;-75
2021/05/13 02:13:38;;;;;;;6.13;2.30;;;;;;;12.33;100.00;100542.81;1732189;83;26286;-75
2021/05/13 02:16:09;;;;;;;7.27;3.07;;;;;;;12.25;100.00;100540.72;1741619;82;26674;-75
2021/05/13 02:18:39;;;;;;;11.50;3.13;;;;;;;12.26;100.00;100545.73;1732241;83;26267;-75
2021/05/13 02:21:09;;;;;;;8.97;2.87;;;;;;;12.28;100.00;100540.10;1741659;82;26670;-75
2021/05/13 02:23:39;;;;;;;7.57;3.03;;;;;;;12.32;100.00;100530.60;1732307;83;26270;-74
2021/05/13 02:26:09;;;;;;;10.93;3.30;;;;;;;12.27;100.00;100532.91;1741669;82;26255;-75
2021/05/13 02:28:39;;;;;;;6.80;3.00;;;;;;;12.20;100.00;100533.84;1732222;82;26306;-75
2021/05/13 02:31:09;;;;;;;8.83;3.43;;;;;;;12.27;100.00;100522.33;1741642;82;26239;-75
2021/05/13 02:33:39;;;;;;;12.30;3.70;;;;;;;12.32;100.00;100527.22;1732221;83;26686;-75
2021/05/13 02:36:10;;;;;;;11.03;3.40;;;;;;;12.31;100.00;100524.76;1741666;82;26310;-75
2021/05/13 02:38:40;;;;;;;9.80;3.43;;;;;;;12.32;100.00;100523.64;1732264;83;26328;-75
2021/05/13 02:41:10;;;;;;;8.37;3.10;;;;;;;12.33;100.00;100523.88;1741611;82;26243;-75
2021/05/13 02:43:40;;;;;;;7.80;3.33;;;;;;;12.35;100.00;100524.41;1732240;83;26258;-75
2021/05/13 02:46:10;;;;;;;9.07;3.10;;;;;;;12.33;100.00;100523.88;1741648;82;26331;-75
2021/05/13 02:48:39;;;;;;;9.97;3.20;;;;;;;12.37;100.00;100521.30;1732292;83;26345;-75
2021/05/13 02:51:09;;;;;;;10.10;3.53;;;;;;;12.37;100.00;100525.48;1741661;82;26254;-75
2021/05/13 02:53:39;;;;;;;8.03;3.30;;;;;;;12.38;100.00;100521.56;1732243;83;26251;-75
2021/05/13 02:56:09;;;;;;;9.77;3.57;;;;;;;12.40;100.00;100525.72;1741631;82;26255;-75
2021/05/13 02:58:39;;;;;;;9.47;3.60;;;;;;;12.35;100.00;100524.41;1732327;83;26247;-75
2021/05/13 03:01:21;;;;;;;8.00;3.27;;;;;;;12.45;100.00;100527.59;1741623;82;26254;-75
2021/05/13 03:03:41;;;;;;;9.93;3.37;;;;;;;12.43;100.00;100520.09;1730267;81;26376;-75
2021/05/13 03:06:11;;;;;;;7.93;3.60;;;;;;;12.42;100.00;100523.44;1741651;82;26321;-75
2021/05/13 03:08:42;;;;;;;8.23;3.80;;;;;;;12.41;100.00;100523.77;1732291;83;26270;-75
2021/05/13 03:11:12;;;;;;;7.83;3.37;;;;;;;12.38;100.00;100525.18;1741632;82;26666;-75
2021/05/13 03:13:43;;;;;;;10.20;4.03;;;;;;;12.36;100.00;100523.84;1732229;83;26714;-75
2021/05/13 03:16:13;;;;;;;9.43;3.47;;;;;;;12.37;100.00;100523.52;1741710;82;26678;-75
2021/05/13 03:18:46;;;;;;;9.60;4.33;;;;;;;12.41;100.00;100521.78;1732203;83;26313;-75
2021/05/13 03:21:22;;;;;;;6.10;3.10;;;;;;;12.50;100.00;100520.51;1741723;82;26662;-74
2021/05/13 03:23:51;;;;;;;10.10;3.97;;;;;;;12.51;100.00;100514.64;1730842;83;26321;-75
2021/05/13 03:26:25;;;;;;;7.90;3.47;;;;;;;12.50;100.00;100515.77;1741331;82;26332;-75
2021/05/13 03:29:06;;;;;;;10.07;3.63;;;;;;;12.49;100.00;100512.75;1677789;82;34269;-75
2021/05/13 03:31:36;;;;;;;11.33;4.13;;;;;;;12.46;100.00;100512.51;1677580;85;26844;-75
2021/05/13 03:34:06;;;;;;;8.87;3.70;;;;;;;12.50;100.00;100512.98;1678345;85;26814;-75
2021/05/13 03:36:36;;;;;;;6.33;3.67;;;;;;;12.51;100.00;100512.42;1677688;85;26383;-74
2021/05/13 03:39:09;;;;;;;8.63;3.77;;;;;;;12.55;100.00;100507.32;1678334;85;26347;-75
2021/05/13 03:41:40;;;;;;;7.70;3.70;;;;;;;12.53;100.00;100506.82;1677664;85;26853;-74
2021/05/13 03:44:09;;;;;;;5.73;3.33;;;;;;;12.48;100.00;100505.52;1678340;85;26308;-74
2021/05/13 03:46:39;;;;;;;10.63;4.37;;;;;;;12.45;100.00;100503.32;1677617;85;26304;-74
2021/05/13 03:49:09;;;;;;;7.03;3.80;;;;;;;12.54;100.00;100504.84;1678299;85;26329;-74
2021/05/13 03:51:39;;;;;;;9.63;3.90;;;;;;;12.49;100.00;100498.82;1678332;85;26372;-75
2021/05/13 03:54:09;;;;;;;9.30;3.50;;;;;;;12.43;100.00;100495.02;1652624;87;26406;-75
2021/05/13 03:56:38;;;;;;;10.93;4.53;;;;;;;12.41;100.00;100498.10;1678429;85;26394;-74
2021/05/13 03:59:12;;;;;;;9.00;3.90;;;;;;;12.44;100.00;100491.11;1677594;85;26806;-74
2021/05/13 04:01:47;;;;;;;7.17;3.90;;;;;;;12.44;100.00;100488.33;1734297;80;932866;-75
2021/05/13 04:04:17;;;;;;;10.23;3.50;;;;;;;12.45;100.00;100491.37;1753327;82;26299;-75
2021/05/13 04:06:46;;;;;;;9.67;3.90;;;;;;;12.47;100.00;100487.14;1753321;82;26247;-74
2021/05/13 04:09:16;;;;;;;12.30;4.07;;;;;;;12.48;100.00;100484.63;1753228;82;26714;-74
2021/05/13 04:11:46;;;;;;;8.87;3.77;;;;;;;12.47;100.00;100487.14;1753253;82;26279;-74
2021/05/13 04:14:17;;;;;;;7.90;3.87;;;;;;;12.45;100.00;100485.80;1753317;82;26727;-74
2021/05/13 04:16:52;;;;;;;9.07;4.33;;;;;;;12.41;100.00;100485.57;1753235;82;26690;-74
2021/05/13 04:19:20;;;;;;;8.83;4.33;;;;;;;12.40;100.00;100495.08;1752639;82;26330;-74
2021/05/13 04:21:50;;;;;;;11.13;4.20;;;;;;;12.53;100.00;100489.27;1753258;82;26267;-74
2021/05/13 04:24:19;;;;;;;9.43;3.57;;;;;;;12.49;100.00;100486.84;1753356;82;26794;-74
2021/05/13 04:26:49;;;;;;;6.80;3.67;;;;;;;12.48;100.00;100487.41;1753215;82;26298;-74
2021/05/13 04:29:19;;;;;;;9.47;3.10;;;;;;;12.45;100.00;100486.61;1755118;82;26788;-74
2021/05/13 04:31:49;;;;;;;6.87;3.07;;;;;;;12.44;100.00;100482.75;1755855;82;26326;-74
2021/05/13 04:34:19;;;;;;;7.83;3.00;;;;;;;12.47;100.00;100481.57;1755908;82;26322;-75
2021/05/13 04:36:49;;;;;;;7.03;2.90;;;;;;;12.48;100.00;100479.05;1755997;80;26255;-74
2021/05/13 04:39:19;;;;;;;6.10;2.70;;;;;;;12.51;100.00;100481.77;1755935;82;26339;-74
2021/05/13 04:41:49;;;;;;;5.87;2.87;;;;;;;12.58;100.00;100485.80;1754075;82;26259;-74
2021/05/13 04:44:18;;;;;;;8.33;2.80;;;;;;;12.52;100.00;100483.44;1753329;82;26372;-74
2021/05/13 04:46:57;;;;;;;7.87;3.00;;;;;;;12.51;100.00;100484.00;1753166;82;26235;-74
2021/05/13 04:49:21;;;;;;;9.07;3.07;;;;;;;12.57;100.00;100484.73;1751919;82;26259;-74
2021/05/13 04:51:50;;;;;;;5.13;2.40;;;;;;;12.48;100.00;100487.97;1753323;82;26810;-73
2021/05/13 04:54:20;;;;;;;5.27;2.37;;;;;;;12.44;100.00;100486.38;1753222;82;26356;-74
2021/05/13 04:56:50;;;;;;;6.50;3.27;;;;;;;12.39;100.00;100488.41;1753251;82;26279;-74
2021/05/13 04:59:20;;;;;;;5.37;2.90;;;;;;;12.36;100.00;100487.08;1753210;82;26244;-74
2021/05/13 05:01:49;;;;;;;6.57;3.13;;;;;;;12.37;100.00;100478.13;1742076;81;26683;-75
2021/05/13 05:04:19;;;;;;;10.47;4.07;;;;;;;12.39;100.00;100479.49;1753294;82;26221;-74
2021/05/13 05:06:49;;;;;;;5.57;3.57;;;;;;;12.49;100.00;100476.53;1753309;82;26735;-74
2021/05/13 05:09:19;;;;;;;9.73;3.43;;;;;;;12.50;100.00;100480.12;1753314;82;26267;-74
2021/05/13 05:11:51;;;;;;;8.63;4.23;;;;;;;12.51;100.00;100479.82;1753278;82;26687;-74
2021/05/13 05:14:21;;;;;;;12.00;6.03;;;;;;;12.43;100.00;100483.31;1753236;82;26314;-74
2021/05/13 05:16:50;;;;;;;10.30;5.77;;;;;;;12.40;100.00;100490.91;1753236;82;26284;-74
2021/05/13 05:19:20;;;;;;;11.50;6.87;;;;;;;12.46;100.00;100490.22;1753191;82;26754;-74
2021/05/13 05:21:50;;;;;;;11.37;7.23;;;;;;;12.44;100.00;100493.33;1753247;82;26301;-74
2021/05/13 05:24:20;;;;;;;13.33;6.97;;;;;;;12.54;100.00;100490.34;1753246;82;26263;-74
2021/05/13 05:26:50;;;;;;;14.60;8.63;;;;;;;12.53;100.00;100486.48;1753208;82;26318;-74
2021/05/13 05:29:20;;;;;;;14.73;8.47;;;;;;;12.49;100.00;100485.45;1749583;82;26344;-74
2021/05/13 05:31:50;;;;;;;18.40;9.13;;;;;;;12.53;100.00;100481.75;1736554;83;26239;-75
2021/05/13 05:34:20;;;;;;;16.10;9.17;;;;;;;12.49;100.00;100483.50;1753348;82;26244;-74
2021/05/13 05:36:50;;;;;;;16.63;9.33;;;;;;;12.58;100.00;100478.84;1753224;82;26220;-74
2021/05/13 05:39:20;;;;;;;15.33;9.13;;;;;;;12.55;100.00;100476.68;1753212;82;26231;-74
2021/05/13 05:41:52;;;;;;;17.57;8.93;;;;;;;12.61;100.00;100477.42;1753311;82;26272;-74
2021/05/13 05:44:21;;;;;;;14.80;9.27;;;;;;;12.63;100.00;100473.17;1742299;81;26235;-74
2021/05/13 05:46:51;;;;;;;15.50;9.77;;;;;;;12.71;100.00;100479.98;1753426;82;26283;-74
2021/05/13 05:49:21;;;;;;;14.40;9.47;;;;;;;12.73;100.00;100475.78;1753317;82;26267;-74
2021/05/13 05:51:51;;;;;;;15.17;8.60;;;;;;;12.74;100.00;100473.81;1753379;82;26272;-74
2021/05/13 05:54:21;;;;;;;15.83;10.03;;;;;;;12.77;100.00;100474.59;1753374;82;26731;-74
2021/05/13 05:56:51;;;;;;;18.13;10.30;;;;;;;12.78;100.00;100473.45;1753337;82;26287;-73
2021/05/13 05:59:21;;;;;;;17.27;10.63;;;;;;;12.80;100.00;100466.99;1753304;82;26236;-75
2021/05/13 06:01:50;;;;;;;17.70;11.33;;;;;;;12.77;100.00;100472.62;1753258;82;26251;-74
2021/05/13 06:04:20;;;;;;;16.60;10.30;;;;;;;12.76;100.00;100468.18;1753395;82;26817;-73
2021/05/13 06:06:50;;;;;;;21.93;12.00;;;;;;;12.77;100.00;100467.62;1753240;82;26326;-73
2021/05/13 06:09:20;;;;;;;18.50;10.57;;;;;;;12.83;100.00;100465.56;1753302;82;26346;-74
2021/05/13 06:11:49;;;;;;;17.10;10.00;;;;;;;12.82;100.00;100466.69;1753472;82;26306;-74
2021/05/13 06:14:19;;;;;;;17.20;10.80;;;;;;;12.88;100.00;100459.89;1753392;82;26271;-73
2021/05/13 06:16:49;;;;;;;19.43;10.20;;;;;;;12.91;100.00;100469.02;1753361;82;26694;-73
2021/05/13 06:19:19;;;;;;;17.00;10.93;;;;;;;12.95;100.00;100461.69;1753327;82;26705;-72
2021/05/13 06:21:49;;;;;;;16.93;11.07;;;;;;;12.92;100.00;100460.33;1753348;82;26244;-72
2021/05/13 06:24:22;;;;;;;19.53;10.83;;;;;;;12.96;100.00;100459.16;1753299;82;26690;-73
2021/05/13 06:27:00;;;;;;;19.40;11.80;;;;;;;12.91;100.00;100462.05;1753332;82;26247;-72
2021/05/13 06:29:30;;;;;;;20.40;12.37;;;;;;;12.91;100.00;100464.84;1753263;81;26345;-73
2021/05/13 06:32:00;;;;;;;18.67;11.83;;;;;;;12.91;100.00;100466.23;1745233;81;26310;-73
2021/05/13 06:34:30;;;;;;;21.43;12.10;;;;;;;12.92;100.00;100468.69;1767318;81;26777;-72
2021/05/13 06:37:01;;;;;;;19.27;11.40;;;;;;;12.94;100.00;100467.00;1767240;81;26254;-72
2021/05/13 06:39:32;;;;;;;19.10;11.70;;;;;;;12.94;100.00;100462.81;1756407;81;26730;-73
2021/05/13 06:42:04;;;;;;;15.63;11.17;;;;;;;12.92;100.00;100465.90;1753401;82;26259;-72
2021/05/13 06:44:34;;;;;;;18.50;11.43;;;;;;;12.92;100.00;100463.71;1753801;82;26750;-73
2021/05/13 06:47:04;;;;;;;14.47;10.20;;;;;;;12.90;100.00;100457.60;1753345;82;26259;-72
2021/05/13 06:49:34;;;;;;;17.60;10.33;;;;;;;12.88;100.00;100455.71;1753360;82;26236;-73
2021/05/13 06:52:05;;;;;;;15.30;10.00;;;;;;;12.89;100.00;100459.56;1753201;82;26377;-73
2021/05/13 06:54:35;;;;;;;16.17;9.17;;;;;;;12.87;100.00;100460.45;1753246;82;26709;-72
2021/05/13 06:57:07;;;;;;;14.20;8.90;;;;;;;12.89;100.00;100460.95;1753338;82;26706;-73
2021/05/13 06:59:38;;;;;;;16.93;9.93;;;;;;;12.92;100.00;100465.90;1753295;82;26240;-72
2021/05/13 07:02:08;;;;;;;12.57;8.50;;;;;;;13.00;100.00;100465.20;1753328;82;26737;-73
2021/05/13 07:04:38;;;;;;;14.73;9.27;;;;;;;12.91;100.00;100460.09;1753512;82;26299;-71
2021/05/13 07:07:09;;;;;;;15.73;9.93;;;;;;;12.93;100.00;100470.34;1753355;82;26706;-72
2021/05/13 07:09:39;;;;;;;16.33;10.07;;;;;;;13.01;100.00;100473.80;1753262;82;26702;-72
2021/05/13 07:12:09;;;;;;;11.97;9.83;;;;;;;12.92;100.00;100474.86;1753288;82;26780;-73
2021/05/13 07:14:39;;;;;;;15.03;10.03;;;;;;;12.90;100.00;100475.72;1753225;82;26387;-73
2021/05/13 07:17:09;;;;;;;16.83;9.53;;;;;;;12.89;100.00;100490.79;1753257;82;26255;-73
2021/05/13 07:19:38;;;;;;;11.47;6.90;;;;;;;12.83;100.00;100492.05;1753260;82;26694;-73
2021/05/13 07:22:08;;;;;;;12.57;5.97;;;;;;;12.44;100.00;100493.33;1753266;82;26271;-73
2021/05/13 07:24:38;;;;;;;6.97;4.10;;;;;;;12.27;100.00;100504.22;1742062;81;26286;-73
2021/05/13 07:27:09;;;;;;;6.30;3.10;;;;;;;12.02;100.00;100510.22;1753238;82;26423;-72
2021/05/13 07:29:39;;;;;;;5.60;3.17;;;;;;;11.84;100.00;100519.68;1753276;82;26240;-73
2021/05/13 07:32:09;;;;;;;6.43;2.43;;;;;;;11.81;100.00;100510.52;1755232;81;26832;-73
2021/05/13 07:34:39;;;;;;;2.57;1.60;;;;;;;11.87;100.00;100507.10;1755662;82;26307;-72
2021/05/13 07:37:09;;;;;;;3.33;1.53;;;;;;;11.78;100.00;100510.30;1753294;82;26255;-73
2021/05/13 07:39:39;;;;;;;4.13;1.37;;;;;;;11.68;100.00;100522.37;1753184;82;26675;-73
2021/05/13 07:42:09;;;;;;;2.03;1.00;;;;;;;11.59;100.00;100525.59;1753221;82;26247;-73
2021/05/13 07:44:39;;;;;;;3.93;1.10;;;;;;;11.56;100.00;100527.55;1753264;82;26335;-73
2021/05/13 07:47:10;;;;;;;2.70;1.20;;;;;;;11.56;100.00;100529.51;1753344;82;26784;-72
2021/05/13 07:49:40;;;;;;;3.53;1.10;;;;;;;11.61;100.00;100521.93;1753249;82;26722;-73
2021/05/13 07:52:10;;;;;;;3.90;1.40;;;;;;;11.66;100.00;100519.64;1753285;82;26334;-73
2021/05/13 07:54:40;;;;;;;3.13;1.20;;;;;;;11.70;100.00;100530.42;1753261;82;26683;-73
2021/05/13 07:57:12;;;;;;;3.77;1.30;;;;;;;11.62;100.00;100533.33;1753416;82;26256;-73
2021/05/13 07:59:41;;;;;;;3.97;1.20;;;;;;;11.60;100.00;100534.73;1753275;82;26326;-73
2021/05/13 08:02:11;;;;;;;2.33;1.30;;;;;;;11.67;100.00;100530.48;1753186;82;26361;-73
2021/05/13 08:04:41;;;;;;;4.23;1.10;;;;;;;11.60;100.00;100533.34;1753202;81;26699;-73
2021/05/13 08:07:11;;;;;;;2.37;1.30;;;;;;;11.65;100.00;100536.06;1755529;81;26239;-73
2021/05/13 08:09:40;;;;;;;3.13;1.10;;;;;;;11.85;100.00;100534.42;1767310;81;26243;-73
2021/05/13 08:12:10;;;;;;;2.53;1.30;;;;;;;11.84;100.00;100530.81;1753592;81;26239;-73
2021/05/13 08:14:40;;;;;;;3.20;1.60;;;;;;;11.97;100.00;100533.39;1753339;82;26251;-73
2021/05/13 08:17:10;;;;;;;4.37;1.47;;;;;;;12.06;100.00;100534.93;1753274;82;26247;-73
2021/05/13 08:19:40;;;;;;;4.07;1.50;;;;;;;11.96;100.00;100530.91;1753204;82;26313;-73
2021/05/13 08:22:10;;;;;;;3.83;1.40;;;;;;;11.95;100.00;100534.25;1753382;82;26284;-73
2021/05/13 08:24:40;;;;;;;4.40;1.60;;;;;;;12.02;100.00;100533.32;1753203;82;26282;-74
2021/05/13 08:27:09;;;;;;;4.73;1.50;;;;;;;11.81;100.00;100532.78;1753210;82;26246;-73
2021/05/13 08:29:39;;;;;;;2.17;1.10;;;;;;;11.88;100.00;100531.59;1753282;82;26244;-73
2021/05/13 08:32:09;;;;;;;2.73;1.10;;;;;;;11.79;100.00;100535.61;1746587;82;26754;-73
2021/05/13 08:34:39;;;;;;;5.03;1.50;;;;;;;11.76;100.00;100537.06;1738571;82;26667;-73
2021/05/13 08:37:09;;;;;;;1.67;0.83;;;;;;;11.70;100.00;100547.12;1735886;83;26263;-75
2021/05/13 08:39:38;;;;;;;2.67;1.23;;;;;;;11.70;100.00;100542.39;1753244;82;26252;-74
2021/05/13 08:42:08;;;;;;;2.73;1.27;;;;;;;11.62;100.00;100540.84;1753288;82;26259;-74
2021/05/13 08:44:39;;;;;;;3.37;1.10;;;;;;;11.83;100.00;100543.62;1753229;82;26741;-74
2021/05/13 08:47:09;;;;;;;3.40;1.30;;;;;;;11.82;100.00;100546.97;1753284;82;26236;-74
2021/05/13 08:49:40;;;;;;;2.87;1.10;;;;;;;11.83;100.00;100538.89;1753340;82;26251;-73
2021/05/13 08:52:11;;;;;;;2.43;1.30;;;;;;;11.62;100.00;100540.84;1753218;82;26698;-74
2021/05/13 08:54:52;;;;;;;3.43;1.33;;;;;;;11.75;100.00;100548.48;1753308;82;26252;-74
2021/05/13 08:57:23;;;;;;;4.40;1.10;;;;;;;11.75;100.00;100548.48;1753298;82;26336;-73
2021/05/13 08:59:54;;;;;;;3.37;1.47;;;;;;;11.73;100.00;100542.37;1753295;82;26267;-73
2021/05/13 09:02:27;;;;;;;1.10;0.90;;;;;;;11.77;100.00;100545.64;1753154;82;26291;-74
2021/05/13 09:04:59;;;;;;;4.50;1.53;;;;;;;11.81;100.00;100540.30;1745994;81;26306;-74
2021/05/13 09:07:31;;;;;;;3.47;1.27;;;;;;;11.83;100.00;100547.80;1755741;81;26299;-74
2021/05/13 09:10:08;;;;;;;3.93;1.00;;;;;;;11.64;100.00;100544.97;1753196;82;26309;-74
2021/05/13 09:12:39;;;;;;;3.63;1.40;;;;;;;11.83;100.00;100549.19;1753265;82;26279;-74
2021/05/13 09:15:14;;;;;;;2.57;1.03;;;;;;;11.58;100.00;100548.96;1753243;82;26232;-73
2021/05/13 09:17:47;;;;;;;3.00;1.10;;;;;;;11.61;100.00;100545.58;1753490;82;26242;-73
2021/05/13 09:20:29;;;;;;;2.90;1.10;;;;;;;11.70;100.00;100542.95;1753461;82;26331;-73
2021/05/13 09:23:16;;;;;;;3.27;0.93;;;;;;;11.60;100.00;100543.91;1753485;82;26251;-74
2021/05/13 09:25:48;;;;;;;2.93;1.00;;;;;;;11.67;100.00;100551.34;1753560;82;26350;-73
2021/05/13 09:28:26;;;;;;;2.20;0.80;;;;;;;11.81;100.00;100552.82;1751149;82;26291;-74
2021/05/13 09:30:56;;;;;;;2.97;1.00;;;;;;;11.69;100.00;100551.02;1753530;82;26260;-74
2021/05/13 09:33:30;;;;;;;1.20;0.80;;;;;;;11.57;100.00;100548.69;1747301;82;26872;-73
2021/05/13 09:36:07;;;;;;;0.97;0.60;;;;;;;11.56;100.00;100548.42;1753397;82;26262;-73
2021/05/13 09:38:37;;;;;;;5.40;0.80;;;;;;;11.52;100.00;100547.92;1750370;82;26334;-74
2021/05/13 09:41:08;;;;;;;1.40;0.70;;;;;;;11.57;100.00;100550.08;1753474;82;26305;-74
2021/05/13 09:43:38;;;;;;;1.90;0.90;;;;;;;11.51;100.00;100552.66;1753404;82;26750;-73
2021/05/13 09:46:08;;;;;;;2.07;0.63;;;;;;;11.58;100.00;100555.92;1753573;82;26742;-73
2021/05/13 09:48:41;;;;;;;1.40;0.80;;;;;;;11.65;100.00;100555.53;1753490;81;26366;-74
2021/05/13 09:51:19;;;;;;;2.67;0.80;;;;;;;11.53;100.00;100562.10;1753329;82;26246;-74
2021/05/13 09:53:51;;;;;;;1.50;0.70;;;;;;;11.55;100.00;100548.73;1753340;82;26264;-74
2021/05/13 09:56:25;;;;;;;1.30;0.80;;;;;;;11.41;100.00;100556.98;1753295;82;26247;-74
2021/05/13 09:58:56;;;;;;;3.13;0.90;;;;;;;11.55;100.00;100548.15;1753375;82;26251;-74
2021/05/13 10:01:29;;;;;;;1.50;0.70;;;;;;;11.53;100.00;100551.81;1753362;82;26243;-74
2021/05/13 10:03:59;;;;;;;2.03;0.67;;;;;;;11.75;100.00;100552.65;1752765;80;26287;-75
2021/05/13 10:06:29;;;;;;;2.77;0.80;;;;;;;11.90;100.00;100557.98;1753374;82;26252;-74
2021/05/13 10:08:59;;;;;;;4.50;1.03;;;;;;;11.86;100.00;100561.10;1753296;82;26255;-74
2021/05/13 10:11:30;;;;;;;2.50;1.50;;;;;;;11.81;100.00;100559.77;1753314;82;26702;-74
2021/05/13 10:14:00;;;;;;;3.83;1.00;;;;;;;11.60;100.00;100561.99;1753236;82;26827;-74
2021/05/13 10:16:31;;;;;;;2.00;1.10;;;;;;;11.70;100.00;100557.69;1753376;82;26259;-74
2021/05/13 10:19:03;;;;;;;2.07;1.10;;;;;;;11.90;100.00;100556.59;1753283;82;26255;-74
2021/05/13 10:21:35;;;;;;;2.37;1.10;;;;;;;12.05;100.00;100563.89;1749068;81;26341;-74
2021/05/13 10:24:08;;;;;;;1.40;1.00;;;;;;;11.97;100.00;100561.79;1763401;81;26785;-74
2021/05/13 10:26:49;;;;;;;2.30;0.97;;;;;;;12.05;100.00;100566.11;1753251;82;26294;-74
2021/05/13 10:29:36;;;;;;;2.83;1.10;;;;;;;11.96;100.00;100560.96;1753424;82;26414;-75
2021/05/13 10:32:11;;;;;;;3.03;1.13;;;;;;;12.01;100.00;100558.67;1753234;82;26243;-75
2021/05/13 10:34:52;;;;;;;2.80;1.17;;;;;;;11.95;100.00;100565.42;1747194;82;26300;-75
2021/05/13 10:37:34;;;;;;;2.93;1.20;;;;;;;12.12;100.00;100559.59;1753242;82;26306;-74
2021/05/13 10:40:41;;;;;;;1.53;1.00;;;;;;;12.09;100.00;100560.77;1753418;82;26354;-74
2021/05/13 10:43:04;;;;;;;2.97;1.10;;;;;;;12.05;100.00;100558.33;1751873;82;26248;-74
2021/05/13 10:45:36;;;;;;;2.13;1.10;;;;;;;12.25;100.00;100558.82;1753425;82;26247;-74
2021/05/13 10:48:22;;;;;;;1.57;1.00;;;;;;;12.37;100.00;100556.11;1753347;82;26378;-74
2021/05/13 10:50:55;;;;;;;2.63;1.30;;;;;;;12.36;100.00;100560.89;1753305;82;26335;-73
2021/05/13 10:53:58;;;;;;;3.13;1.50;;;;;;;12.23;100.00;100563.05;1753274;82;26271;-74
2021/05/13 10:56:37;;;;;;;2.33;1.43;;;;;;;12.39;100.00;100565.01;1753245;82;26796;-74
2021/05/13 10:59:17;;;;;;;4.17;1.70;;;;;;;12.35;100.00;100568.14;1753321;82;26247;-73
2021/05/13 11:01:48;;;;;;;2.40;1.60;;;;;;;12.38;100.00;100568.36;1753404;82;26682;-74
2021/05/13 11:04:46;;;;;;;2.73;1.80;;;;;;;12.48;100.00;100564.58;1736155;82;26892;-74
2021/05/13 11:07:29;;;;;;;1.93;1.50;;;;;;;12.52;100.00;100560.05;1753287;82;26318;-74
2021/05/13 11:10:03;;;;;;;4.70;1.90;;;;;;;12.43;100.00;100563.27;1753322;82;26753;-73
2021/05/13 11:12:55;;;;;;;2.13;1.30;;;;;;;12.32;100.00;100568.20;1753330;82;26840;-74
2021/05/13 11:15:27;;;;;;;3.27;1.70;;;;;;;12.20;100.00;100567.25;1700229;84;26345;-74
2021/05/13 11:18:13;;;;;;;3.33;1.70;;;;;;;12.22;100.00;100564.17;1701802;84;26336;-74
2021/05/13 11:20:52;;;;;;;1.00;0.90;;;;;;;12.26;100.00;100570.23;1702059;84;26281;-73
2021/05/13 11:23:24;;;;;;;1.10;1.00;;;;;;;12.23;100.00;100572.80;1702679;84;26677;-75
2021/05/13 11:25:57;;;;;;;2.10;0.73;;;;;;;12.25;100.00;100577.48;1701771;84;26344;-74
2021/05/13 11:28:29;;;;;;;1.53;0.50;;;;;;;12.04;100.00;100571.97;1701961;84;26349;-74
2021/05/13 11:31:13;;;;;;;1.63;0.57;;;;;;;11.92;100.00;100566.87;1702328;84;26360;-74
2021/05/13 11:33:45;;;;;;;2.13;0.70;;;;;;;11.95;100.00;100565.42;1702404;84;26270;-74